createdAt,value
2022-08-24T00:02:02.243Z,42.05
2022-08-24T00:04:32.548Z,43.42
2022-08-24T00:07:02.408Z,43.63
2022-08-24T00:09:33.236Z,42.28
2022-08-24T00:12:02.930Z,42.58
2022-08-24T00:14:32.484Z,42.42
2022-08-24T00:17:01.735Z,42.67
2022-08-24T00:19:30.232Z,42.83
2022-08-24T00:22:00.269Z,38.97
2022-08-24T00:24:28.740Z,37.97
2022-08-24T00:26:57.399Z,40.38
2022-08-24T00:29:26.315Z,42.50
2022-08-24T00:31:54.860Z,41.70
2022-08-24T00:34:23.227Z,42.13
2022-08-24T00:36:51.648Z,41.00
2022-08-24T00:39:20.670Z,39.75
2022-08-24T00:41:51.608Z,40.95
2022-08-24T00:44:21.344Z,42.40
2022-08-24T00:47:11.037Z,41.20
2022-08-24T00:49:54.766Z,44.03
2022-08-24T00:52:29.758Z,42.88
2022-08-24T00:55:10.444Z,40.63
2022-08-24T00:57:42.482Z,41.42
2022-08-24T01:00:16.897Z,39.70
2022-08-24T01:02:48.998Z,41.15
2022-08-24T01:05:19.209Z,45.78
2022-08-24T01:07:50.957Z,43.75
2022-08-24T01:10:25.736Z,44.45
2022-08-24T01:13:00.348Z,45.40
2022-08-24T01:15:33.020Z,44.95
2022-08-24T01:18:20.971Z,43.63
2022-08-24T01:20:58.065Z,45.53
2022-08-24T01:23:45.077Z,44.63
2022-08-24T01:26:40.090Z,40.72
2022-08-24T01:29:13.451Z,43.08
2022-08-24T01:31:42.643Z,42.85
2022-08-24T01:34:13.119Z,44.65
2022-08-24T01:39:25.385Z,44.53
2022-08-24T01:41:54.237Z,44.35
2022-08-24T01:44:25.176Z,44.20
2022-08-24T01:46:55.752Z,43.88
2022-08-24T01:51:55.323Z,44.95
2022-08-24T01:54:24.608Z,42.90
2022-08-24T01:56:53.350Z,43.30
2022-08-24T01:59:22.541Z,43.20
2022-08-24T02:02:03.276Z,41.92
2022-08-24T02:04:36.137Z,42.47
2022-08-24T02:07:04.690Z,42.13
2022-08-24T02:09:36.739Z,39.53
2022-08-24T02:12:07.587Z,40.40
2022-08-24T02:14:37.345Z,51.57
2022-08-24T02:17:08.213Z,49.28
2022-08-24T02:19:37.805Z,58.28
2022-08-24T02:22:10.534Z,53.00
2022-08-24T02:24:40.439Z,54.42
2022-08-24T02:27:08.972Z,49.63
2022-08-24T02:29:39.186Z,46.22
2022-08-24T02:32:07.572Z,47.20
2022-08-24T02:34:36.511Z,47.65
2022-08-24T02:37:05.425Z,47.47
2022-08-24T02:39:34.069Z,48.17
2022-08-24T02:42:06.833Z,46.25
2022-08-24T02:44:35.536Z,46.63
2022-08-24T02:47:04.312Z,46.80
2022-08-24T02:49:35.543Z,47.13
2022-08-24T02:52:04.921Z,47.17
2022-08-24T02:54:35.190Z,45.83
2022-08-24T02:57:03.815Z,49.80
2022-08-24T02:59:32.362Z,51.90
2022-08-24T03:02:00.697Z,54.33
2022-08-24T03:04:29.278Z,52.10
2022-08-24T03:06:59.573Z,50.65
2022-08-24T03:09:28.931Z,50.95
2022-08-24T03:11:59.138Z,51.13
2022-08-24T03:14:27.525Z,52.55
2022-08-24T03:16:56.429Z,51.63
2022-08-24T03:19:24.839Z,48.60
2022-08-24T03:21:54.224Z,49.10
2022-08-24T03:24:23.438Z,48.90
2022-08-24T03:26:52.020Z,51.17
2022-08-24T03:29:20.440Z,56.83
2022-08-24T03:31:54.765Z,51.33
2022-08-24T03:34:25.121Z,52.92
2022-08-24T03:36:53.518Z,51.90
2022-08-24T03:39:21.874Z,50.08
2022-08-24T03:41:54.322Z,53.03
2022-08-24T03:44:25.190Z,53.33
2022-08-24T03:46:55.483Z,54.40
2022-08-24T03:49:26.214Z,50.42
2022-08-24T03:51:54.733Z,49.90
2022-08-24T03:54:25.312Z,47.38
2022-08-24T03:56:53.855Z,48.17
2022-08-24T03:59:22.244Z,50.63
2022-08-24T04:01:56.152Z,47.45
2022-08-24T04:04:26.693Z,49.30
2022-08-24T04:06:55.033Z,44.35
2022-08-24T04:09:24.696Z,44.55
2022-08-24T04:11:53.570Z,44.55
2022-08-24T04:14:27.710Z,43.97
2022-08-24T04:17:08.778Z,42.40
2022-08-24T04:19:57.867Z,42.55
2022-08-24T04:22:36.386Z,45.97
2022-08-24T04:25:08.917Z,41.40
2022-08-24T04:27:40.795Z,43.13
2022-08-24T04:30:14.220Z,44.00
2022-08-24T04:33:02.097Z,45.08
2022-08-24T04:35:31.097Z,44.25
2022-08-24T04:37:59.580Z,45.88
2022-08-24T04:40:27.998Z,43.22
2022-08-24T04:42:59.120Z,50.05
2022-08-24T04:45:29.595Z,45.65
2022-08-24T04:47:58.385Z,46.22
2022-08-24T04:50:28.429Z,44.50
2022-08-24T04:52:58.573Z,47.78
2022-08-24T04:55:27.672Z,43.35
2022-08-24T04:57:56.159Z,46.80
2022-08-24T05:00:24.802Z,40.95
2022-08-24T05:02:57.369Z,43.95
2022-08-24T05:05:28.829Z,46.33
2022-08-24T05:07:57.399Z,46.28
2022-08-24T05:10:26.733Z,47.70
2022-08-24T05:13:02.358Z,45.97
2022-08-24T05:15:31.613Z,44.33
2022-08-24T05:18:00.983Z,49.40
2022-08-24T05:20:29.381Z,47.63
2022-08-24T05:23:03.805Z,45.40
2022-08-24T05:25:34.015Z,42.60
2022-08-24T05:28:02.471Z,42.45
2022-08-24T05:30:31.073Z,41.00
2022-08-24T05:33:00.114Z,36.08
2022-08-24T05:35:28.707Z,36.80
2022-08-24T05:37:59.704Z,34.88
2022-08-24T05:40:37.643Z,34.50
2022-08-24T05:43:06.553Z,34.25
2022-08-24T05:45:34.980Z,34.08
2022-08-24T05:48:03.904Z,32.50
2022-08-24T05:50:57.865Z,31.65
2022-08-24T05:53:30.235Z,39.05
2022-08-24T05:56:07.941Z,37.13
2022-08-24T05:58:39.492Z,39.33
2022-08-24T06:01:11.530Z,40.72
2022-08-24T06:03:40.506Z,42.97
2022-08-24T06:06:11.577Z,42.10
2022-08-24T06:08:42.929Z,44.13
2022-08-24T06:11:29.875Z,49.03
2022-08-24T06:14:02.739Z,43.50
2022-08-24T06:16:39.986Z,45.53
2022-08-24T06:19:11.745Z,51.45
2022-08-24T06:21:41.182Z,60.85
2022-08-24T06:24:09.881Z,68.20
2022-08-24T06:26:57.169Z,62.80
2022-08-24T06:29:25.603Z,70.68
2022-08-24T06:31:58.553Z,72.40
2022-08-24T06:36:57.879Z,57.63
2022-08-24T06:39:28.878Z,55.22
2022-08-24T06:41:58.355Z,54.88
2022-08-24T06:44:34.339Z,59.75
2022-08-24T06:47:13.335Z,53.83
2022-08-24T06:49:42.175Z,53.42
2022-08-24T06:52:13.506Z,58.50
2022-08-24T06:54:44.132Z,54.63
2022-08-24T06:57:12.528Z,57.45
2022-08-24T06:59:43.182Z,54.58
2022-08-24T07:02:15.943Z,48.67
2022-08-24T07:04:46.614Z,59.90
2022-08-24T07:07:33.965Z,47.63
2022-08-24T07:10:07.288Z,45.40
2022-08-24T07:12:36.905Z,44.47
2022-08-24T07:15:11.495Z,44.75
2022-08-24T07:17:46.465Z,47.13
2022-08-24T07:20:15.488Z,47.00
2022-08-24T07:23:12.643Z,52.45
2022-08-24T07:25:48.925Z,43.22
2022-08-24T07:28:31.841Z,42.55
2022-08-24T07:31:02.179Z,47.58
2022-08-24T07:33:36.147Z,40.03
2022-08-24T07:36:05.143Z,40.88
2022-08-24T07:38:34.622Z,42.60
2022-08-24T07:41:33.720Z,41.90
2022-08-24T07:43:52.751Z,39.35
2022-08-24T07:46:22.829Z,35.42
2022-08-24T07:49:05.130Z,27.83
2022-08-24T07:51:44.806Z,22.05
2022-08-24T07:54:15.876Z,30.92
2022-08-24T07:56:45.449Z,25.85
2022-08-24T07:59:14.633Z,24.38
2022-08-24T08:01:43.220Z,19.25
2022-08-24T08:04:14.272Z,18.08
2022-08-24T08:06:43.111Z,22.45
2022-08-24T08:09:11.900Z,21.40
2022-08-24T08:11:41.884Z,26.33
2022-08-24T08:14:10.781Z,19.35
2022-08-24T08:16:39.231Z,18.38
2022-08-24T08:19:11.199Z,21.65
2022-08-24T08:22:10.409Z,21.45
2022-08-24T08:24:58.665Z,16.83
2022-08-24T08:27:28.080Z,18.67
2022-08-24T08:29:57.335Z,15.52
2022-08-24T08:32:26.032Z,15.82
2022-08-24T08:35:00.102Z,14.80
2022-08-24T08:37:31.307Z,17.25
2022-08-24T08:40:00.543Z,16.42
2022-08-24T08:42:56.366Z,14.38
2022-08-24T08:46:06.706Z,16.40
2022-08-24T08:49:25.036Z,15.73
2022-08-24T08:52:27.294Z,17.17
2022-08-24T08:55:14.563Z,12.52
2022-08-24T08:58:03.920Z,17.80
2022-08-24T09:01:12.107Z,16.40
2022-08-24T09:04:05.537Z,14.63
2022-08-24T09:07:23.105Z,14.80
2022-08-24T09:10:28.904Z,12.15
2022-08-24T09:13:09.235Z,14.35
2022-08-24T09:16:19.102Z,10.18
2022-08-24T09:19:10.529Z,13.60
2022-08-24T09:22:00.702Z,10.80
2022-08-24T09:24:40.857Z,18.15
2022-08-24T09:27:43.436Z,11.30
2022-08-24T09:30:20.831Z,12.57
2022-08-24T09:33:04.533Z,13.40
2022-08-24T09:35:48.934Z,13.00
2022-08-24T09:38:43.529Z,15.35
2022-08-24T09:41:59.002Z,16.08
2022-08-24T09:44:39.886Z,14.82
2022-08-24T09:47:29.933Z,12.63
2022-08-24T09:50:01.196Z,11.05
2022-08-24T09:52:45.811Z,12.93
2022-08-24T09:55:33.291Z,9.68
2022-08-24T09:58:45.148Z,9.55
2022-08-24T10:01:36.540Z,10.48
2022-08-24T10:04:12.514Z,8.35
2022-08-24T10:06:51.254Z,6.40
2022-08-24T10:09:43.233Z,6.82
2022-08-24T10:12:47.355Z,7.18
2022-08-24T10:15:36.055Z,6.43
2022-08-24T10:18:22.790Z,7.00
2022-08-24T10:21:03.566Z,5.75
2022-08-24T10:23:51.689Z,10.73
2022-08-24T10:26:57.704Z,8.35
2022-08-24T10:29:29.034Z,7.25
2022-08-24T10:32:34.742Z,5.25
2022-08-24T10:35:14.090Z,4.38
2022-08-24T10:38:42.260Z,6.40
2022-08-24T10:41:23.768Z,5.93
2022-08-24T10:44:12.816Z,6.60
2022-08-24T10:47:06.729Z,6.53
2022-08-24T10:49:37.738Z,7.45
2022-08-24T10:52:43.693Z,4.50
2022-08-24T10:55:21.447Z,5.50
2022-08-24T10:57:56.832Z,6.50
2022-08-24T11:00:30.953Z,6.70
2022-08-24T11:03:21.354Z,6.25
2022-08-24T11:05:58.002Z,9.82
2022-08-24T11:08:33.460Z,7.47
2022-08-24T11:11:10.031Z,7.32
2022-08-24T11:13:51.131Z,12.27
2022-08-24T11:16:42.886Z,9.05
2022-08-24T11:19:14.743Z,5.30
2022-08-24T11:21:43.967Z,6.43
2022-08-24T11:24:38.582Z,4.97
2022-08-24T11:27:30.554Z,7.63
2022-08-24T11:30:03.231Z,8.20
2022-08-24T11:32:43.348Z,5.88
2022-08-24T11:38:23.976Z,12.35
2022-08-24T11:41:01.059Z,6.93
2022-08-24T11:43:48.012Z,7.45
2022-08-24T11:46:50.526Z,7.88
2022-08-24T11:49:27.501Z,8.75
2022-08-24T11:52:24.719Z,5.70
2022-08-24T11:55:09.140Z,4.10
2022-08-24T11:58:03.494Z,6.88
2022-08-24T12:00:59.268Z,5.43
2022-08-24T12:03:39.513Z,6.47
2022-08-24T12:06:40.787Z,7.53
2022-08-24T12:09:46.704Z,6.22
2022-08-24T12:12:46.706Z,11.25
2022-08-24T12:15:17.801Z,9.48
2022-08-24T12:18:05.296Z,5.60
2022-08-24T12:20:48.270Z,8.18
2022-08-24T12:23:19.787Z,8.68
2022-08-24T12:26:03.095Z,8.05
2022-08-24T12:28:46.223Z,6.47
2022-08-24T12:31:39.482Z,5.10
2022-08-24T12:34:20.427Z,8.63
2022-08-24T12:36:51.878Z,10.15
2022-08-24T12:39:28.678Z,6.45
2022-08-24T12:42:23.753Z,6.10
2022-08-24T12:45:13.496Z,4.15
2022-08-24T12:48:17.471Z,6.45
2022-08-24T12:51:01.626Z,9.43
2022-08-24T12:53:51.405Z,6.68
2022-08-24T12:56:45.357Z,5.22
2022-08-24T12:59:25.820Z,5.35
2022-08-24T13:02:06.037Z,7.22
2022-08-24T13:04:43.314Z,7.10
2022-08-24T13:07:30.724Z,7.13
2022-08-24T13:09:58.999Z,4.18
2022-08-24T13:12:41.406Z,5.68
2022-08-24T13:15:20.861Z,4.43
2022-08-24T13:18:21.635Z,4.00
2022-08-24T13:20:51.553Z,9.75
2022-08-24T13:23:22.773Z,8.55
2022-08-24T13:25:58.546Z,6.28
2022-08-24T13:28:29.817Z,5.47
2022-08-24T13:31:32.678Z,6.47
2022-08-24T13:34:24.986Z,3.83
2022-08-24T13:37:18.746Z,6.88
2022-08-24T13:40:00.849Z,4.35
2022-08-24T13:42:38.835Z,8.73
2022-08-24T13:45:16.433Z,9.75
2022-08-24T13:47:44.960Z,3.05
2022-08-24T13:50:38.303Z,6.32
2022-08-24T13:53:18.775Z,4.78
2022-08-24T13:55:52.053Z,3.83
2022-08-24T13:58:48.838Z,4.70
2022-08-24T14:01:59.650Z,4.15
2022-08-24T14:04:28.078Z,4.53
2022-08-24T14:07:08.569Z,3.20
2022-08-24T14:09:42.746Z,4.13
2022-08-24T14:12:22.117Z,6.22
2022-08-24T14:15:03.049Z,3.22
2022-08-24T14:17:54.099Z,3.17
2022-08-24T14:20:46.181Z,4.50
2022-08-24T14:23:39.645Z,4.30
2022-08-24T14:26:33.073Z,6.63
2022-08-24T14:29:19.776Z,6.32
2022-08-24T14:32:11.796Z,4.78
2022-08-24T14:35:18.820Z,4.47
2022-08-24T14:38:10.606Z,3.88
2022-08-24T14:41:12.493Z,5.45
2022-08-24T14:44:03.849Z,4.97
2022-08-24T14:47:06.934Z,8.68
2022-08-24T14:49:45.003Z,4.20
2022-08-24T14:52:35.445Z,10.23
2022-08-24T14:55:18.260Z,7.18
2022-08-24T14:58:08.181Z,4.30
2022-08-24T15:01:25.050Z,5.15
2022-08-24T15:04:06.503Z,10.98
2022-08-24T15:06:50.590Z,3.92
2022-08-24T15:09:38.001Z,6.57
2022-08-24T15:12:39.499Z,3.42
2022-08-24T15:15:23.823Z,5.55
2022-08-24T15:17:57.771Z,4.15
2022-08-24T15:21:09.020Z,4.75
2022-08-24T15:23:57.557Z,5.65
2022-08-24T15:27:03.474Z,5.07
2022-08-24T15:29:34.537Z,7.28
2022-08-24T15:32:22.415Z,6.22
2022-08-24T15:34:59.612Z,8.70
2022-08-24T15:37:38.437Z,6.10
2022-08-24T15:40:22.215Z,5.38
2022-08-24T15:42:51.407Z,8.38
2022-08-24T15:45:21.105Z,6.35
2022-08-24T15:47:53.169Z,4.82
2022-08-24T15:50:30.286Z,5.47
2022-08-24T15:53:08.083Z,11.30
2022-08-24T15:55:48.099Z,21.98
2022-08-24T15:58:37.610Z,7.25
2022-08-24T16:01:30.665Z,9.02
2022-08-24T16:04:11.631Z,10.18
2022-08-24T16:06:43.441Z,13.38
2022-08-24T16:09:20.824Z,7.82
2022-08-24T16:12:16.329Z,7.15
2022-08-24T16:14:48.557Z,9.52
2022-08-24T16:17:34.157Z,5.72
2022-08-24T16:20:07.965Z,6.25
2022-08-24T16:23:00.353Z,7.65
2022-08-24T16:25:42.937Z,5.85
2022-08-24T16:28:13.526Z,7.53
2022-08-24T16:30:51.826Z,7.20
2022-08-24T16:33:41.961Z,6.70
2022-08-24T16:36:16.530Z,5.50
2022-08-24T16:38:48.424Z,4.82
2022-08-24T16:41:22.988Z,6.72
2022-08-24T16:43:51.706Z,6.40
2022-08-24T16:46:24.084Z,7.93
2022-08-24T16:48:54.640Z,8.82
2022-08-24T16:51:24.594Z,6.40
2022-08-24T16:53:54.967Z,9.43
2022-08-24T16:58:51.809Z,6.75
2022-08-24T17:01:20.342Z,13.98
2022-08-24T17:06:19.657Z,7.88
2022-08-24T17:08:49.421Z,10.48
2022-08-24T17:11:19.450Z,6.65
2022-08-24T17:13:50.201Z,9.07
2022-08-24T17:16:21.252Z,12.35
2022-08-24T17:18:49.900Z,6.35
2022-08-24T17:21:18.502Z,8.05
2022-08-24T17:23:50.174Z,9.57
2022-08-24T17:26:21.494Z,5.63
2022-08-24T17:28:55.370Z,7.13
2022-08-24T17:31:29.073Z,8.57
2022-08-24T17:34:01.510Z,6.88
2022-08-24T17:36:32.470Z,6.65
2022-08-24T17:39:02.571Z,5.93
2022-08-24T17:41:31.881Z,6.72
2022-08-24T17:44:01.418Z,10.65
2022-08-24T17:46:31.652Z,8.88
2022-08-24T17:49:02.216Z,7.18
2022-08-24T17:51:30.965Z,5.45
2022-08-24T17:54:02.050Z,7.13
2022-08-24T17:56:37.703Z,5.50
2022-08-24T17:59:23.056Z,3.95
2022-08-24T18:01:54.967Z,5.97
2022-08-24T18:04:26.094Z,5.93
2022-08-24T18:06:56.486Z,5.13
2022-08-24T18:12:08.342Z,5.80
2022-08-24T18:14:36.616Z,10.02
2022-08-24T18:17:08.792Z,5.25
2022-08-24T18:19:39.610Z,4.60
2022-08-24T18:22:07.971Z,4.55
2022-08-24T18:24:36.588Z,8.48
2022-08-24T18:27:10.275Z,6.20
2022-08-24T18:29:42.621Z,7.35
2022-08-24T18:32:12.445Z,7.10
2022-08-24T18:34:41.471Z,6.10
2022-08-24T18:37:10.098Z,8.73
2022-08-24T18:39:38.496Z,6.18
2022-08-24T18:42:09.056Z,5.50
2022-08-24T18:44:39.025Z,7.65
2022-08-24T18:47:08.872Z,5.50
2022-08-24T18:49:38.228Z,7.22
2022-08-24T18:52:09.809Z,3.88
2022-08-24T18:54:41.933Z,10.50
2022-08-24T18:57:10.979Z,5.90
2022-08-24T18:59:40.866Z,9.45
2022-08-24T19:02:36.009Z,5.72
2022-08-24T19:05:24.679Z,7.13
2022-08-24T19:07:55.803Z,5.75
2022-08-24T19:10:29.034Z,6.72
2022-08-24T19:13:03.683Z,8.10
2022-08-24T19:15:39.920Z,3.63
2022-08-24T19:18:13.404Z,7.75
2022-08-24T19:20:48.416Z,8.27
2022-08-24T19:23:27.923Z,7.38
2022-08-24T19:25:57.437Z,5.10
2022-08-24T19:28:27.117Z,5.80
2022-08-24T19:30:57.893Z,10.27
2022-08-24T19:33:34.490Z,8.07
2022-08-24T19:36:03.189Z,6.47
2022-08-24T19:38:31.859Z,6.30
2022-08-24T19:41:02.612Z,11.02
2022-08-24T19:44:01.585Z,9.63
2022-08-24T19:46:30.054Z,6.72
2022-08-24T19:48:58.638Z,6.72
2022-08-24T19:51:27.157Z,7.03
2022-08-24T19:53:55.527Z,8.10
2022-08-24T19:56:24.569Z,6.82
2022-08-24T19:59:00.883Z,4.85
2022-08-24T20:01:34.847Z,6.45
2022-08-24T20:04:07.041Z,6.97
2022-08-24T20:06:37.433Z,7.32
2022-08-24T20:09:08.743Z,13.85
2022-08-24T20:11:39.275Z,7.57
2022-08-24T20:14:07.681Z,7.05
2022-08-24T20:16:39.558Z,5.63
2022-08-24T20:19:11.320Z,6.95
2022-08-24T20:21:43.987Z,11.43
2022-08-24T20:24:12.962Z,6.82
2022-08-24T20:26:44.083Z,5.35
2022-08-24T20:29:13.382Z,7.88
2022-08-24T20:31:42.455Z,7.38
2022-08-24T20:34:10.949Z,7.38
2022-08-24T20:36:43.795Z,9.07
2022-08-24T20:39:14.058Z,4.57
2022-08-24T20:41:42.550Z,5.22
2022-08-24T20:44:11.755Z,12.23
2022-08-24T20:46:40.837Z,9.95
2022-08-24T20:49:17.035Z,8.38
2022-08-24T20:51:47.944Z,10.52
2022-08-24T20:54:16.547Z,9.32
2022-08-24T20:56:45.185Z,10.30
2022-08-24T20:59:15.082Z,10.10
2022-08-24T21:01:43.757Z,7.53
2022-08-24T21:04:18.346Z,4.55
2022-08-24T21:06:46.865Z,10.23
2022-08-24T21:09:19.110Z,7.88
2022-08-24T21:11:47.506Z,6.72
2022-08-24T21:14:15.882Z,10.43
2022-08-24T21:16:44.527Z,8.25
2022-08-24T21:19:17.961Z,8.18
2022-08-24T21:21:47.177Z,10.93
2022-08-24T21:24:16.485Z,7.68
2022-08-24T21:26:46.674Z,8.23
2022-08-24T21:29:16.660Z,11.20
2022-08-24T21:32:05.065Z,9.32
2022-08-24T21:34:43.272Z,6.28
2022-08-24T21:37:15.179Z,10.73
2022-08-24T21:39:47.427Z,10.98
2022-08-24T21:42:17.577Z,8.02
2022-08-24T21:44:48.510Z,6.45
2022-08-24T21:47:17.486Z,4.85
2022-08-24T21:49:46.563Z,8.07
2022-08-24T21:52:15.569Z,8.60
2022-08-24T21:54:46.052Z,6.10
2022-08-24T21:57:15.805Z,6.57
2022-08-24T21:59:44.445Z,8.35
2022-08-24T22:02:13.435Z,8.73
2022-08-24T22:04:56.233Z,9.18
2022-08-24T22:07:25.239Z,6.18
2022-08-24T22:09:56.131Z,3.42
2022-08-24T22:12:24.676Z,7.22
2022-08-24T22:14:54.834Z,3.92
2022-08-24T22:17:23.240Z,6.22
2022-08-24T22:19:51.699Z,3.17
2022-08-24T22:22:20.074Z,8.40
2022-08-24T22:24:48.375Z,3.60
2022-08-24T22:27:17.053Z,5.40
2022-08-24T22:29:51.941Z,7.35
2022-08-24T22:32:20.922Z,3.35
2022-08-24T22:34:49.256Z,7.65
2022-08-24T22:37:18.677Z,8.32
2022-08-24T22:39:47.081Z,4.82
2022-08-24T22:42:15.541Z,3.67
2022-08-24T22:44:43.950Z,4.03
2022-08-24T22:47:15.018Z,3.28
2022-08-24T22:49:44.290Z,6.35
2022-08-24T22:52:14.337Z,3.35
2022-08-24T22:54:47.626Z,6.93
2022-08-24T22:57:19.915Z,4.70
2022-08-24T22:59:48.604Z,6.63
2022-08-24T23:02:19.762Z,4.82
2022-08-24T23:04:51.131Z,6.60
2022-08-24T23:07:21.205Z,3.17
2022-08-24T23:09:49.692Z,5.38
2022-08-24T23:12:22.453Z,3.53
2022-08-24T23:14:52.249Z,4.68
2022-08-24T23:17:22.059Z,5.00
2022-08-24T23:20:06.423Z,5.50
2022-08-24T23:22:38.790Z,3.58
2022-08-24T23:25:09.930Z,4.47
2022-08-24T23:27:39.074Z,5.47
2022-08-24T23:30:10.789Z,3.08
2022-08-24T23:32:39.685Z,3.33
2022-08-24T23:35:08.433Z,4.68
2022-08-24T23:37:36.837Z,6.35
2022-08-24T23:40:05.844Z,5.35
2022-08-24T23:42:34.231Z,5.70
2022-08-24T23:45:03.589Z,3.80
2022-08-24T23:47:35.898Z,3.78
2022-08-24T23:50:10.688Z,5.10
2022-08-24T23:52:40.999Z,3.83
2022-08-24T23:55:21.347Z,6.03
2022-08-24T23:57:53.554Z,5.35
